sensor_id;sensor_type;location;lat;lon;timestamp;pressure;altitude;pressure_sealevel;temperature;humidity
21828;BME280;11076;47.942;11.804;2023-02-18T00:03:19;95169.47;;;10.88;85.67
21828;BME280;11076;47.942;11.804;2023-02-18T00:08:21;95155.25;;;10.81;86.27
21828;BME280;11076;47.942;11.804;2023-02-18T00:13:24;95141.81;;;10.68;87.04
21828;BME280;11076;47.942;11.804;2023-02-18T00:18:26;95139.13;;;10.54;88.05
21828;BME280;11076;47.942;11.804;2023-02-18T00:23:28;95143.22;;;10.50;88.70
21828;BME280;11076;47.942;11.804;2023-02-18T00:28:31;95137.22;;;10.48;88.98
21828;BME280;11076;47.942;11.804;2023-02-18T00:33:34;95140.50;;;10.37;90.01
21828;BME280;11076;47.942;11.804;2023-02-18T00:38:37;95134.66;;;10.27;90.99
21828;BME280;11076;47.942;11.804;2023-02-18T00:43:39;95135.03;;;10.17;91.89
21828;BME280;11076;47.942;11.804;2023-02-18T00:48:42;95125.78;;;10.20;92.20
21828;BME280;11076;47.942;11.804;2023-02-18T00:53:44;95134.06;;;9.96;93.27
21828;BME280;11076;47.942;11.804;2023-02-18T00:58:46;95120.13;;;10.01;93.75
21828;BME280;11076;47.942;11.804;2023-02-18T01:03:49;95123.13;;;9.85;93.61
21828;BME280;11076;47.942;11.804;2023-02-18T01:08:51;95140.94;;;9.78;94.19
21828;BME280;11076;47.942;11.804;2023-02-18T01:13:54;95123.59;;;9.67;94.71
21828;BME280;11076;47.942;11.804;2023-02-18T01:18:56;95123.50;;;9.82;94.66
21828;BME280;11076;47.942;11.804;2023-02-18T01:24:00;95128.31;;;9.93;94.73
21828;BME280;11076;47.942;11.804;2023-02-18T01:29:02;95113.75;;;10.02;94.20
21828;BME280;11076;47.942;11.804;2023-02-18T01:34:05;95124.06;;;10.05;93.60
21828;BME280;11076;47.942;11.804;2023-02-18T01:39:07;95109.56;;;10.21;93.12
21828;BME280;11076;47.942;11.804;2023-02-18T01:44:15;95112.84;;;10.23;92.81
21828;BME280;11076;47.942;11.804;2023-02-18T01:49:39;95110.59;;;10.27;93.21
21828;BME280;11076;47.942;11.804;2023-02-18T01:54:55;95106.28;;;10.26;93.41
21828;BME280;11076;47.942;11.804;2023-02-18T02:00:04;95112.16;;;10.08;93.53
21828;BME280;11076;47.942;11.804;2023-02-18T02:05:16;95097.09;;;10.00;95.21
21828;BME280;11076;47.942;11.804;2023-02-18T02:10:19;95093.44;;;10.01;95.77
21828;BME280;11076;47.942;11.804;2023-02-18T02:15:48;95092.47;;;10.22;96.42
21828;BME280;11076;47.942;11.804;2023-02-18T02:53:02;95109.44;;;9.66;97.59
21828;BME280;11076;47.942;11.804;2023-02-18T02:58:13;95089.94;;;9.66;96.49
21828;BME280;11076;47.942;11.804;2023-02-18T03:19:25;95056.28;;;9.71;96.04
21828;BME280;11076;47.942;11.804;2023-02-18T03:24:37;95054.06;;;9.47;97.22
21828;BME280;11076;47.942;11.804;2023-02-18T03:29:42;95051.13;;;9.35;97.98
21828;BME280;11076;47.942;11.804;2023-02-18T03:34:50;95054.78;;;9.27;98.76
21828;BME280;11076;47.942;11.804;2023-02-18T03:39:56;95063.97;;;9.25;99.49
21828;BME280;11076;47.942;11.804;2023-02-18T03:45:02;95062.50;;;9.15;99.51
21828;BME280;11076;47.942;11.804;2023-02-18T03:50:05;95058.75;;;9.10;100.00
21828;BME280;11076;47.942;11.804;2023-02-18T03:55:09;95064.72;;;9.12;99.93
21828;BME280;11076;47.942;11.804;2023-02-18T04:00:12;95061.63;;;9.15;100.00
21828;BME280;11076;47.942;11.804;2023-02-18T04:05:14;95073.00;;;9.24;100.00
21828;BME280;11076;47.942;11.804;2023-02-18T04:10:17;95044.09;;;9.27;99.87
21828;BME280;11076;47.942;11.804;2023-02-18T04:15:19;95045.59;;;9.36;100.00
21828;BME280;11076;47.942;11.804;2023-02-18T04:20:22;95058.44;;;9.26;99.61
21828;BME280;11076;47.942;11.804;2023-02-18T04:25:24;95058.41;;;9.20;100.00
21828;BME280;11076;47.942;11.804;2023-02-18T04:30:26;95067.19;;;9.13;100.00
21828;BME280;11076;47.942;11.804;2023-02-18T04:35:29;95059.22;;;9.20;100.00
21828;BME280;11076;47.942;11.804;2023-02-18T04:40:32;95067.72;;;9.02;100.00
21828;BME280;11076;47.942;11.804;2023-02-18T04:45:34;95063.16;;;8.96;100.00
21828;BME280;11076;47.942;11.804;2023-02-18T04:50:38;95079.59;;;9.00;100.00
21828;BME280;11076;47.942;11.804;2023-02-18T04:55:40;95074.63;;;8.96;100.00
21828;BME280;11076;47.942;11.804;2023-02-18T05:00:42;95078.06;;;9.12;100.00
21828;BME280;11076;47.942;11.804;2023-02-18T05:05:45;95072.44;;;9.28;100.00
21828;BME280;11076;47.942;11.804;2023-02-18T05:10:47;95079.94;;;9.46;100.00
21828;BME280;11076;47.942;11.804;2023-02-18T05:15:51;95075.28;;;9.55;100.00
21828;BME280;11076;47.942;11.804;2023-02-18T05:20:53;95078.81;;;9.62;100.00
21828;BME280;11076;47.942;11.804;2023-02-18T05:25:56;95069.38;;;9.66;99.66
21828;BME280;11076;47.942;11.804;2023-02-18T05:30:58;95061.38;;;9.66;100.00
21828;BME280;11076;47.942;11.804;2023-02-18T05:36:00;95067.81;;;9.79;99.18
21828;BME280;11076;47.942;11.804;2023-02-18T05:41:03;95076.88;;;9.78;99.18
21828;BME280;11076;47.942;11.804;2023-02-18T05:46:05;95066.56;;;9.74;99.45
21828;BME280;11076;47.942;11.804;2023-02-18T05:56:16;95071.09;;;9.81;98.55
21828;BME280;11076;47.942;11.804;2023-02-18T06:01:18;95064.13;;;9.80;98.28
21828;BME280;11076;47.942;11.804;2023-02-18T06:06:21;95068.84;;;9.78;98.38
21828;BME280;11076;47.942;11.804;2023-02-18T06:11:23;95080.16;;;9.80;98.73
21828;BME280;11076;47.942;11.804;2023-02-18T06:16:25;95076.88;;;9.78;98.66
21828;BME280;11076;47.942;11.804;2023-02-18T06:21:28;95080.16;;;9.80;98.51
21828;BME280;11076;47.942;11.804;2023-02-18T06:26:31;95071.91;;;9.74;98.62
21828;BME280;11076;47.942;11.804;2023-02-18T06:31:33;95072.53;;;9.76;98.89
21828;BME280;11076;47.942;11.804;2023-02-18T06:36:35;95073.56;;;9.75;98.11
21828;BME280;11076;47.942;11.804;2023-02-18T06:41:38;95070.69;;;9.77;98.06
21828;BME280;11076;47.942;11.804;2023-02-18T06:46:43;95079.13;;;9.81;97.88
21828;BME280;11076;47.942;11.804;2023-02-18T06:51:45;95083.84;;;9.79;97.51
21828;BME280;11076;47.942;11.804;2023-02-18T06:56:47;95079.34;;;9.79;97.19
21828;BME280;11076;47.942;11.804;2023-02-18T07:01:50;95085.69;;;9.78;97.67
21828;BME280;11076;47.942;11.804;2023-02-18T07:06:52;95090.06;;;9.86;97.36
21828;BME280;11076;47.942;11.804;2023-02-18T07:11:55;95080.22;;;9.93;96.41
21828;BME280;11076;47.942;11.804;2023-02-18T07:16:57;95079.00;;;9.95;96.11
21828;BME280;11076;47.942;11.804;2023-02-18T07:22:00;95077.22;;;10.09;95.07
21828;BME280;11076;47.942;11.804;2023-02-18T07:27:02;95079.47;;;10.12;94.90
21828;BME280;11076;47.942;11.804;2023-02-18T07:32:05;95077.66;;;10.13;94.78
21828;BME280;11076;47.942;11.804;2023-02-18T07:37:08;95073.94;;;10.14;94.40
21828;BME280;11076;47.942;11.804;2023-02-18T07:42:11;95069.41;;;10.14;93.75
21828;BME280;11076;47.942;11.804;2023-02-18T07:47:16;95080.34;;;10.20;93.36
21828;BME280;11076;47.942;11.804;2023-02-18T07:52:20;95082.00;;;10.21;93.34
21828;BME280;11076;47.942;11.804;2023-02-18T07:57:23;95072.56;;;10.25;92.71
21828;BME280;11076;47.942;11.804;2023-02-18T08:02:25;95060.34;;;10.50;91.27
21828;BME280;11076;47.942;11.804;2023-02-18T08:07:28;95063.25;;;10.82;91.20
21828;BME280;11076;47.942;11.804;2023-02-18T08:12:30;95060.00;;;10.93;88.98
21828;BME280;11076;47.942;11.804;2023-02-18T08:17:32;95046.41;;;11.15;87.67
21828;BME280;11076;47.942;11.804;2023-02-18T08:22:35;95055.47;;;11.54;86.30
21828;BME280;11076;47.942;11.804;2023-02-18T08:27:37;95044.47;;;11.75;82.62
21828;BME280;11076;47.942;11.804;2023-02-18T08:32:39;95037.06;;;11.91;82.24
21828;BME280;11076;47.942;11.804;2023-02-18T08:37:42;95026.28;;;12.49;79.48
21828;BME280;11076;47.942;11.804;2023-02-18T08:42:44;95030.41;;;12.45;77.62
21828;BME280;11076;47.942;11.804;2023-02-18T08:47:46;95021.06;;;12.23;77.92
21828;BME280;11076;47.942;11.804;2023-02-18T08:52:49;95015.00;;;11.75;79.29
21828;BME280;11076;47.942;11.804;2023-02-18T08:57:51;95012.63;;;11.54;80.25
21828;BME280;11076;47.942;11.804;2023-02-18T09:02:54;95008.06;;;11.48;81.82
21828;BME280;11076;47.942;11.804;2023-02-18T09:07:56;95001.47;;;11.57;81.13
21828;BME280;11076;47.942;11.804;2023-02-18T09:12:59;95010.13;;;11.46;81.29
21828;BME280;11076;47.942;11.804;2023-02-18T09:18:01;94993.66;;;11.49;81.41
21828;BME280;11076;47.942;11.804;2023-02-18T09:23:04;94997.97;;;11.57;81.15
21828;BME280;11076;47.942;11.804;2023-02-18T09:28:06;94993.56;;;11.75;80.45
21828;BME280;11076;47.942;11.804;2023-02-18T09:33:08;94989.94;;;12.22;79.60
21828;BME280;11076;47.942;11.804;2023-02-18T09:38:13;94976.34;;;12.48;77.95
21828;BME280;11076;47.942;11.804;2023-02-18T09:43:32;94962.09;;;12.54;76.93
21828;BME280;11076;47.942;11.804;2023-02-18T09:48:36;94964.59;;;12.81;75.72
21828;BME280;11076;47.942;11.804;2023-02-18T09:53:41;94967.34;;;12.93;73.95
21828;BME280;11076;47.942;11.804;2023-02-18T09:58:47;94955.41;;;12.89;74.47
21828;BME280;11076;47.942;11.804;2023-02-18T10:03:51;94933.25;;;12.75;73.79
21828;BME280;11076;47.942;11.804;2023-02-18T10:09:12;94936.38;;;12.97;71.69
21828;BME280;11076;47.942;11.804;2023-02-18T10:14:18;94927.38;;;13.28;70.12
21828;BME280;11076;47.942;11.804;2023-02-18T10:24:37;94913.09;;;13.71;66.41
21828;BME280;11076;47.942;11.804;2023-02-18T10:29:41;94897.81;;;14.02;65.25
21828;BME280;11076;47.942;11.804;2023-02-18T10:34:53;94884.78;;;14.18;63.04
21828;BME280;11076;47.942;11.804;2023-02-18T10:51:01;94867.19;;;14.45;61.67
21828;BME280;11076;47.942;11.804;2023-02-18T10:56:06;94873.44;;;14.16;61.71
21828;BME280;11076;47.942;11.804;2023-02-18T11:01:15;94851.19;;;14.08;62.36
21828;BME280;11076;47.942;11.804;2023-02-18T11:11:37;94832.50;;;14.13;60.77
21828;BME280;11076;47.942;11.804;2023-02-18T11:16:45;94826.69;;;14.17;60.35
21828;BME280;11076;47.942;11.804;2023-02-18T11:21:48;94815.25;;;14.21;60.02
21828;BME280;11076;47.942;11.804;2023-02-18T11:26:50;94802.41;;;14.35;60.24
21828;BME280;11076;47.942;11.804;2023-02-18T11:31:54;94790.84;;;14.46;59.18
21828;BME280;11076;47.942;11.804;2023-02-18T11:37:10;94788.25;;;14.51;59.62
21828;BME280;11076;47.942;11.804;2023-02-18T11:42:14;94782.44;;;14.78;59.12
21828;BME280;11076;47.942;11.804;2023-02-18T11:47:31;94771.00;;;15.23;58.03
21828;BME280;11076;47.942;11.804;2023-02-18T11:57:42;94756.09;;;15.61;55.60
21828;BME280;11076;47.942;11.804;2023-02-18T12:02:46;94749.75;;;15.67;55.20
21828;BME280;11076;47.942;11.804;2023-02-18T12:13:04;94729.06;;;15.85;53.32
21828;BME280;11076;47.942;11.804;2023-02-18T13:13:02;94630.97;;;16.64;44.95
21828;BME280;11076;47.942;11.804;2023-02-18T13:18:12;94631.00;;;16.86;45.33
21828;BME280;11076;47.942;11.804;2023-02-18T13:23:22;94629.44;;;16.73;44.53
21828;BME280;11076;47.942;11.804;2023-02-18T13:33:57;94636.31;;;16.20;46.73
21828;BME280;11076;47.942;11.804;2023-02-18T13:39:06;94626.59;;;16.19;47.19
21828;BME280;11076;47.942;11.804;2023-02-18T13:49:27;94623.88;;;16.19;50.48
21828;BME280;11076;47.942;11.804;2023-02-18T13:54:34;94635.25;;;16.21;50.30
21828;BME280;11076;47.942;11.804;2023-02-18T13:59:46;94625.31;;;15.87;52.24
21828;BME280;11076;47.942;11.804;2023-02-18T14:04:55;94631.16;;;15.50;53.36
21828;BME280;11076;47.942;11.804;2023-02-18T14:09:59;94627.66;;;15.50;53.30
21828;BME280;11076;47.942;11.804;2023-02-18T14:20:50;94642.78;;;15.85;51.79
21828;BME280;11076;47.942;11.804;2023-02-18T14:25:57;94639.00;;;15.52;52.60
21828;BME280;11076;47.942;11.804;2023-02-18T14:41:34;94643.34;;;14.96;54.96
21828;BME280;11076;47.942;11.804;2023-02-18T14:51:47;94651.41;;;14.55;56.53
21828;BME280;11076;47.942;11.804;2023-02-18T14:56:58;94650.84;;;14.41;58.17
21828;BME280;11076;47.942;11.804;2023-02-18T15:02:02;94658.47;;;14.09;59.39
21828;BME280;11076;47.942;11.804;2023-02-18T15:07:08;94654.97;;;13.85;60.57
21828;BME280;11076;47.942;11.804;2023-02-18T15:12:15;94649.66;;;13.66;60.67
21828;BME280;11076;47.942;11.804;2023-02-18T15:17:21;94666.59;;;13.55;61.32
21828;BME280;11076;47.942;11.804;2023-02-18T15:22:26;94639.91;;;13.30;62.86
21828;BME280;11076;47.942;11.804;2023-02-18T15:27:33;94657.88;;;13.11;64.10
21828;BME280;11076;47.942;11.804;2023-02-18T15:32:39;94646.53;;;12.97;64.71
21828;BME280;11076;47.942;11.804;2023-02-18T15:37:46;94648.78;;;12.82;65.17
21828;BME280;11076;47.942;11.804;2023-02-18T15:42:56;94657.66;;;12.82;64.85
21828;BME280;11076;47.942;11.804;2023-02-18T15:48:00;94667.88;;;12.73;64.91
21828;BME280;11076;47.942;11.804;2023-02-18T15:53:06;94671.31;;;12.62;65.13
21828;BME280;11076;47.942;11.804;2023-02-18T15:58:13;94666.03;;;12.37;66.32
21828;BME280;11076;47.942;11.804;2023-02-18T16:03:22;94673.97;;;12.25;66.84
21828;BME280;11076;47.942;11.804;2023-02-18T16:08:26;94666.91;;;12.12;67.41
21828;BME280;11076;47.942;11.804;2023-02-18T16:13:29;94667.03;;;11.99;67.93
21828;BME280;11076;47.942;11.804;2023-02-18T16:18:40;94682.38;;;11.85;68.49
21828;BME280;11076;47.942;11.804;2023-02-18T16:23:46;94668.06;;;11.73;69.07
21828;BME280;11076;47.942;11.804;2023-02-18T16:29:03;94672.66;;;11.66;69.51
21828;BME280;11076;47.942;11.804;2023-02-18T16:34:08;94687.56;;;11.55;69.99
21828;BME280;11076;47.942;11.804;2023-02-18T16:39:11;94692.38;;;11.46;70.53
21828;BME280;11076;47.942;11.804;2023-02-18T16:44:13;94700.44;;;11.40;70.67
21828;BME280;11076;47.942;11.804;2023-02-18T16:49:16;94702.56;;;11.31;70.82
21828;BME280;11076;47.942;11.804;2023-02-18T16:54:19;94713.06;;;11.32;70.14
21828;BME280;11076;47.942;11.804;2023-02-18T16:59:21;94713.31;;;11.24;70.92
21828;BME280;11076;47.942;11.804;2023-02-18T17:04:23;94724.00;;;11.24;70.71
21828;BME280;11076;47.942;11.804;2023-02-18T17:09:26;94725.69;;;11.19;70.32
21828;BME280;11076;47.942;11.804;2023-02-18T17:14:28;94734.34;;;11.14;70.76
21828;BME280;11076;47.942;11.804;2023-02-18T17:19:31;94727.34;;;11.13;70.20
21828;BME280;11076;47.942;11.804;2023-02-18T17:24:33;94712.50;;;11.17;69.90
21828;BME280;11076;47.942;11.804;2023-02-18T17:29:35;94723.03;;;11.12;70.12
21828;BME280;11076;47.942;11.804;2023-02-18T17:34:38;94731.50;;;11.09;71.21
21828;BME280;11076;47.942;11.804;2023-02-18T17:39:42;94728.63;;;11.04;71.13
21828;BME280;11076;47.942;11.804;2023-02-18T17:44:44;94735.19;;;11.08;71.43
21828;BME280;11076;47.942;11.804;2023-02-18T17:49:46;94739.13;;;11.05;72.07
21828;BME280;11076;47.942;11.804;2023-02-18T17:54:49;94752.50;;;11.05;72.18
21828;BME280;11076;47.942;11.804;2023-02-18T17:59:51;94757.44;;;11.02;72.64
21828;BME280;11076;47.942;11.804;2023-02-18T18:04:53;94766.47;;;11.07;72.47
21828;BME280;11076;47.942;11.804;2023-02-18T18:09:56;94751.09;;;11.03;72.78
21828;BME280;11076;47.942;11.804;2023-02-18T18:14:58;94748.81;;;11.00;72.99
21828;BME280;11076;47.942;11.804;2023-02-18T18:20:03;94757.50;;;10.95;73.58
21828;BME280;11076;47.942;11.804;2023-02-18T18:30:37;94755.63;;;10.95;73.58
21828;BME280;11076;47.942;11.804;2023-02-18T18:35:41;94768.59;;;10.99;73.97
21828;BME280;11076;47.942;11.804;2023-02-18T18:40:45;94774.78;;;10.92;74.00
21828;BME280;11076;47.942;11.804;2023-02-18T18:45:48;94776.41;;;10.93;74.33
21828;BME280;11076;47.942;11.804;2023-02-18T18:50:53;94777.72;;;10.84;74.86
21828;BME280;11076;47.942;11.804;2023-02-18T18:55:58;94769.28;;;10.81;75.40
21828;BME280;11076;47.942;11.804;2023-02-18T19:01:03;94780.59;;;10.83;75.69
21828;BME280;11076;47.942;11.804;2023-02-18T19:06:07;94785.09;;;10.82;76.11
21828;BME280;11076;47.942;11.804;2023-02-18T19:11:10;94779.78;;;10.69;76.32
21828;BME280;11076;47.942;11.804;2023-02-18T19:16:18;94783.91;;;10.65;76.98
21828;BME280;11076;47.942;11.804;2023-02-18T19:21:21;94782.28;;;10.57;77.65
21828;BME280;11076;47.942;11.804;2023-02-18T19:26:24;94778.81;;;10.57;77.84
21828;BME280;11076;47.942;11.804;2023-02-18T19:31:27;94778.19;;;10.54;78.02
21828;BME280;11076;47.942;11.804;2023-02-18T19:36:29;94777.78;;;10.44;79.00
21828;BME280;11076;47.942;11.804;2023-02-18T19:41:32;94793.63;;;10.52;78.40
21828;BME280;11076;47.942;11.804;2023-02-18T19:46:34;94793.41;;;10.47;78.76
21828;BME280;11076;47.942;11.804;2023-02-18T19:51:36;94793.00;;;10.44;78.77
21828;BME280;11076;47.942;11.804;2023-02-18T19:56:39;94799.59;;;10.41;79.39
21828;BME280;11076;47.942;11.804;2023-02-18T20:01:41;94798.38;;;10.37;79.29
21828;BME280;11076;47.942;11.804;2023-02-18T20:06:44;94791.78;;;10.33;79.70
21828;BME280;11076;47.942;11.804;2023-02-18T20:11:46;94814.16;;;10.25;79.16
21828;BME280;11076;47.942;11.804;2023-02-18T20:16:49;94807.41;;;10.23;79.43
21828;BME280;11076;47.942;11.804;2023-02-18T20:21:51;94814.38;;;10.24;79.38
21828;BME280;11076;47.942;11.804;2023-02-18T20:26:58;94811.50;;;10.19;80.17
21828;BME280;11076;47.942;11.804;2023-02-18T20:32:04;94813.16;;;10.13;79.75
21828;BME280;11076;47.942;11.804;2023-02-18T20:37:06;94814.78;;;10.07;79.61
21828;BME280;11076;47.942;11.804;2023-02-18T20:42:09;94814.34;;;10.10;79.86
21828;BME280;11076;47.942;11.804;2023-02-18T20:47:17;94814.34;;;10.10;79.44
21828;BME280;11076;47.942;11.804;2023-02-18T20:52:20;94812.31;;;9.99;79.83
21828;BME280;11076;47.942;11.804;2023-02-18T20:57:22;94821.53;;;9.90;80.29
21828;BME280;11076;47.942;11.804;2023-02-18T21:02:24;94806.56;;;9.89;79.86
21828;BME280;11076;47.942;11.804;2023-02-18T21:07:27;94816.22;;;9.83;80.07
21828;BME280;11076;47.942;11.804;2023-02-18T21:12:29;94815.56;;;9.74;80.17
21828;BME280;11076;47.942;11.804;2023-02-18T21:17:32;94811.03;;;9.62;80.79
21828;BME280;11076;47.942;11.804;2023-02-18T21:22:34;94818.00;;;9.56;81.60
21828;BME280;11076;47.942;11.804;2023-02-18T21:27:37;94817.34;;;9.41;80.87
21828;BME280;11076;47.942;11.804;2023-02-18T21:32:39;94821.22;;;9.31;81.21
21828;BME280;11076;47.942;11.804;2023-02-18T21:37:41;94821.00;;;9.33;81.84
21828;BME280;11076;47.942;11.804;2023-02-18T21:42:44;94822.84;;;9.19;81.93
21828;BME280;11076;47.942;11.804;2023-02-18T21:47:46;94824.84;;;9.17;83.05
21828;BME280;11076;47.942;11.804;2023-02-18T21:52:49;94823.22;;;9.16;82.71
21828;BME280;11076;47.942;11.804;2023-02-18T21:57:51;94824.84;;;9.17;83.28
21828;BME280;11076;47.942;11.804;2023-02-18T22:02:53;94817.88;;;9.09;82.75
21828;BME280;11076;47.942;11.804;2023-02-18T22:07:56;94819.06;;;9.07;83.25
21828;BME280;11076;47.942;11.804;2023-02-18T22:12:58;94808.34;;;8.93;83.60
21828;BME280;11076;47.942;11.804;2023-02-18T22:18:01;94827.41;;;8.90;83.82
21828;BME280;11076;47.942;11.804;2023-02-18T22:23:03;94817.44;;;9.06;83.81
21828;BME280;11076;47.942;11.804;2023-02-18T22:28:05;94810.31;;;9.20;83.16
21828;BME280;11076;47.942;11.804;2023-02-18T22:33:08;94816.06;;;9.23;82.62
21828;BME280;11076;47.942;11.804;2023-02-18T22:38:10;94813.78;;;9.20;83.52
21828;BME280;11076;47.942;11.804;2023-02-18T22:43:13;94816.88;;;9.24;83.08
21828;BME280;11076;47.942;11.804;2023-02-18T22:48:15;94816.28;;;9.28;83.64
21828;BME280;11076;47.942;11.804;2023-02-18T22:53:20;94816.28;;;9.28;83.02
21828;BME280;11076;47.942;11.804;2023-02-18T22:58:23;94807.47;;;9.34;82.95
21828;BME280;11076;47.942;11.804;2023-02-18T23:03:26;94809.13;;;9.35;82.48
21828;BME280;11076;47.942;11.804;2023-02-18T23:08:29;94816.94;;;9.37;82.18
21828;BME280;11076;47.942;11.804;2023-02-18T23:13:32;94818.56;;;9.38;82.54
21828;BME280;11076;47.942;11.804;2023-02-18T23:18:35;94816.34;;;9.48;81.92
21828;BME280;11076;47.942;11.804;2023-02-18T23:23:38;94811.81;;;9.49;81.20
21828;BME280;11076;47.942;11.804;2023-02-18T23:28:40;94811.19;;;9.47;81.65
21828;BME280;11076;47.942;11.804;2023-02-18T23:33:52;94797.84;;;9.47;81.53
21828;BME280;11076;47.942;11.804;2023-02-18T23:38:59;94796.63;;;9.49;80.77
21828;BME280;11076;47.942;11.804;2023-02-18T23:44:07;94791.88;;;9.45;81.20
21828;BME280;11076;47.942;11.804;2023-02-18T23:49:20;94788.22;;;9.46;80.04
21828;BME280;11076;47.942;11.804;2023-02-18T23:54:25;94781.84;;;9.47;80.17
21828;BME280;11076;47.942;11.804;2023-02-18T23:59:28;94772.59;;;9.43;79.92
